This is the latest recevied weather packets stored in our database for station/object KLIT. If no packets are shown the sender has not sent any weather packets the latest 1 day(s).
| Time | Temp. | Humidity | Pressure | Rain* | Wind** | Luminosity | Snow |
|---|---|---|---|---|---|---|---|
| 1836274581 | 21.67° C | 94% | 1016.6 hPa | - | 0 m/s | - | - |
| 1836274433 | 21.67° C | 94% | 1016.6 hPa | - | 0 m/s | - | - |
| 1836273981 | 21.67° C | 94% | 1016.6 hPa | - | 0 m/s | - | - |
| 1778051014 | 15° C | 93% | 1008.1 hPa | - | 7.6 m/s, 20° | - | - |
| 1778050409 | 15° C | 93% | 1007.8 hPa | - | 8.49 m/s, 20° | - | - |
| 1778049811 | 15.56° C | 87% | 1007.8 hPa | - | 6.71 m/s, 10° | - | - |
| 1778049218 | 16.67° C | 93% | 1008.1 hPa | - | 11.18 m/s, 10° | - | - |
| 1778048612 | 16.67° C | 93% | 1008.1 hPa | - | 11.18 m/s, 10° | - | - |
| 1778048011 | 21.67° C | 94% | 1006.1 hPa | - | 4.02 m/s, 230° | - | - |
| 1778047416 | 21.67° C | 94% | 1006.1 hPa | - | 4.02 m/s, 230° | - | - |
| 1778046813 | 20.56° C | 100% | 1006.1 hPa | - | 2.24 m/s, 190° | - | - |
| 1778046217 | 20.56° C | 100% | 1006.1 hPa | - | 2.24 m/s, 190° | - | - |
| 1778045610 | 20.56° C | 100% | 1006.1 hPa | - | 2.24 m/s, 190° | - | - |
| 1778045012 | 20.56° C | 100% | 1006.1 hPa | - | 2.24 m/s, 190° | - | - |
| 1778044412 | 20.56° C | 100% | 1006.1 hPa | - | 2.24 m/s, 190° | - | - |
| 1778043814 | 20.56° C | 100% | 1006.1 hPa | - | 2.24 m/s, 190° | - | - |
| 1778043211 | 20.56° C | 94% | 1006.4 hPa | - | 0 m/s | - | - |
| 1778042613 | 20.56° C | 94% | 1006.4 hPa | - | 0 m/s | - | - |
| 1778042013 | 20.56° C | 94% | 1006.4 hPa | - | 0 m/s | - | - |
| 1778041413 | 20.56° C | 94% | 1006.4 hPa | - | 0 m/s | - | - |
| 1778040815 | 20.56° C | 94% | 1006.4 hPa | - | 0 m/s | - | - |
| 1778040333 | 20.56° C | 94% | 1006.4 hPa | - | 0 m/s | - | - |
| 1778039610 | 21.67° C | 88% | 1006.4 hPa | - | 2.24 m/s, 150° | - | - |
| 1778039018 | 21.67° C | 88% | 1006.4 hPa | - | 2.24 m/s, 150° | - | - |
| 1778038417 | 21.67° C | 88% | 1006.4 hPa | - | 2.24 m/s, 150° | - | - |
* Rain since midnight (hover to see other rain measurements)
** Current wind speed in m/s (hover to see current wind gust speed)